Time;durP1;ratioP1;P1;durP2;ratioP2;P2;SDS_P1;SDS_P2;PMS_P1;PMS_P2;Temp;Humidity;BMP_temperature;BMP_pressure;BME280_temperature;BME280_humidity;BME280_pressure;Samples;Min_cycle;Max_cycle;Signal;HPM_P1;HPM_P2
2023/01/15 00:00:51;;;;;;;11.85;3.47;;;;;;;;;;5093795;28;20110;-75
2023/01/15 00:03:17;;;;;;;13.40;3.78;;;;;;;;;;5093534;28;20031;-74
2023/01/15 00:05:42;;;;;;;10.68;3.60;;;;;;;;;;5093756;28;20547;-74
2023/01/15 00:08:08;;;;;;;7.65;3.15;;;;;;;;;;5093880;28;20126;-73
2023/01/15 00:10:34;;;;;;;8.15;3.25;;;;;;;;;;5093431;28;20020;-74
2023/01/15 00:12:59;;;;;;;11.38;3.42;;;;;;;;;;5093514;28;20047;-74
2023/01/15 00:15:25;;;;;;;10.25;3.40;;;;;;;;;;5092593;28;20048;-75
2023/01/15 00:17:51;;;;;;;11.48;3.40;;;;;;;;;;5101139;28;20106;-73
2023/01/15 00:20:16;;;;;;;8.10;3.25;;;;;;;;;;5093392;28;20028;-74
2023/01/15 00:22:41;;;;;;;11.55;3.22;;;;;;;;;;5093429;28;20032;-74
2023/01/15 00:27:53;;;;;;;12.52;2.95;;;;;;;;;;5093013;28;20131;-74
2023/01/15 00:30:18;;;;;;;11.88;3.15;;;;;;;;;;5093212;28;20012;-75
2023/01/15 00:32:44;;;;;;;12.73;3.40;;;;;;;;;;5093193;28;20552;-75
2023/01/15 00:35:15;;;;;;;10.10;3.13;;;;;;;;;;5091760;28;20042;-75
2023/01/15 00:37:40;;;;;;;11.15;3.20;;;;;;;;;;5092838;28;20024;-74
2023/01/15 00:40:06;;;;;;;14.98;3.30;;;;;;;;;;5093167;28;20411;-73
2023/01/15 00:42:32;;;;;;;7.25;3.13;;;;;;;;;;5092964;28;20035;-73
2023/01/15 00:44:57;;;;;;;11.85;3.50;;;;;;;;;;5093048;28;20020;-74
2023/01/15 00:47:23;;;;;;;13.63;3.80;;;;;;;;;;5092445;28;20048;-75
2023/01/15 00:49:49;;;;;;;10.77;3.03;;;;;;;;;;5092535;28;20027;-76
2023/01/15 00:52:14;;;;;;;10.38;2.95;;;;;;;;;;5092703;28;20024;-75
2023/01/15 00:54:40;;;;;;;10.85;2.97;;;;;;;;;;5092814;28;20046;-75
2023/01/15 00:57:05;;;;;;;9.40;3.30;;;;;;;;;;5092548;28;20073;-73
2023/01/15 00:59:31;;;;;;;11.00;3.22;;;;;;;;;;5092648;28;20020;-73
2023/01/15 01:01:57;;;;;;;8.48;2.95;;;;;;;;;;5092577;28;20024;-73
2023/01/15 01:04:23;;;;;;;14.25;3.10;;;;;;;;;;5092460;28;20104;-73
2023/01/15 01:06:48;;;;;;;9.77;3.28;;;;;;;;;;5092192;28;20107;-74
2023/01/15 01:09:15;;;;;;;12.65;3.45;;;;;;;;;;5092308;28;20032;-73
2023/01/15 01:11:40;;;;;;;9.45;3.55;;;;;;;;;;5092331;28;20024;-73
2023/01/15 01:14:06;;;;;;;10.35;3.30;;;;;;;;;;5092498;28;20028;-74
2023/01/15 01:16:38;;;;;;;12.95;3.40;;;;;;;;;;5092288;28;20093;-73
2023/01/15 01:19:07;;;;;;;13.73;3.58;;;;;;;;;;5092419;28;20020;-73
2023/01/15 01:21:34;;;;;;;10.57;3.13;;;;;;;;;;5092406;28;20027;-73
2023/01/15 01:24:00;;;;;;;15.43;3.38;;;;;;;;;;5092266;28;20506;-74
2023/01/15 01:26:26;;;;;;;10.50;3.20;;;;;;;;;;5090879;28;20028;-73
2023/01/15 01:28:55;;;;;;;7.50;3.10;;;;;;;;;;5092519;28;20086;-73
2023/01/15 01:31:21;;;;;;;10.45;3.13;;;;;;;;;;5098762;28;20104;-73
2023/01/15 01:33:55;;;;;;;8.13;2.85;;;;;;;;;;5105121;28;20050;-73
2023/01/15 01:36:26;;;;;;;11.30;3.50;;;;;;;;;;5101039;28;20032;-74
2023/01/15 01:38:52;;;;;;;19.45;3.33;;;;;;;;;;5092052;28;20035;-73
2023/01/15 01:41:18;;;;;;;8.80;2.83;;;;;;;;;;5092099;28;20020;-75
2023/01/15 01:44:28;;;;;;;11.15;3.08;;;;;;;;;;5091805;28;20486;-74
2023/01/15 01:46:54;;;;;;;10.55;2.88;;;;;;;;;;5089974;28;20097;-73
2023/01/15 01:49:19;;;;;;;12.60;3.15;;;;;;;;;;5091750;28;20028;-74
2023/01/15 01:51:49;;;;;;;9.75;3.33;;;;;;;;;;5091970;28;20024;-74
2023/01/15 01:54:18;;;;;;;11.82;3.90;;;;;;;;;;5092296;28;20107;-74
2023/01/15 01:56:44;;;;;;;8.95;3.13;;;;;;;;;;5091519;28;20146;-73
2023/01/15 01:59:10;;;;;;;15.45;3.58;;;;;;;;;;5090265;28;20387;-73
2023/01/15 02:01:36;;;;;;;10.82;3.10;;;;;;;;;;5091486;28;20031;-73
2023/01/15 02:04:05;;;;;;;10.95;3.03;;;;;;;;;;5091314;28;20055;-73
2023/01/15 02:06:31;;;;;;;10.13;3.13;;;;;;;;;;5091171;28;20024;-74
2023/01/15 02:08:56;;;;;;;11.05;3.00;;;;;;;;;;5091233;28;20030;-73
2023/01/15 02:11:23;;;;;;;12.88;3.55;;;;;;;;;;5091749;28;20099;-74
2023/01/15 02:14:10;;;;;;;9.73;3.33;;;;;;;;;;5091285;28;20028;-74
2023/01/15 02:16:45;;;;;;;10.07;3.10;;;;;;;;;;5090950;28;20032;-73
2023/01/15 02:19:38;;;;;;;8.98;3.05;;;;;;;;;;5090875;28;20428;-75
2023/01/15 02:22:28;;;;;;;11.63;3.20;;;;;;;;;;5091190;28;20032;-74
2023/01/15 02:25:19;;;;;;;10.18;3.10;;;;;;;;;;5091262;28;20572;-75
2023/01/15 02:28:30;;;;;;;7.88;3.00;;;;;;;;;;5090776;28;20039;-74
2023/01/15 02:30:58;;;;;;;;;;;;;;;;;;5091434;28;20038;-72
2023/01/15 02:33:35;;;;;;;9.75;3.15;;;;;;;;;;5090660;28;19915;-74
2023/01/15 02:36:00;;;;;;;13.88;3.63;;;;;;;;;;5090870;28;20052;-74
2023/01/15 02:38:31;;;;;;;15.02;3.40;;;;;;;;;;5090270;28;20048;-75
2023/01/15 02:40:58;;;;;;;;;;;;;;;;;;5091360;28;20024;-73
2023/01/15 02:43:26;;;;;;;10.13;3.05;;;;;;;;;;5090741;28;19908;-73
2023/01/15 02:45:56;;;;;;;11.77;3.28;;;;;;;;;;5090724;28;20586;-74
2023/01/15 02:48:27;;;;;;;10.80;3.20;;;;;;;;;;5090538;28;20052;-73
2023/01/15 02:51:01;;;;;;;17.38;3.92;;;;;;;;;;5090650;28;20545;-73
2023/01/15 02:53:29;;;;;;;9.15;3.30;;;;;;;;;;5090553;28;20484;-73
2023/01/15 02:56:02;;;;;;;10.10;3.13;;;;;;;;;;5090582;28;20036;-73
2023/01/15 02:58:33;;;;;;;9.32;2.83;;;;;;;;;;5090615;28;20589;-75
2023/01/15 03:01:02;;;;;;;11.80;3.20;;;;;;;;;;5090672;28;20069;-73
2023/01/15 03:03:46;;;;;;;10.02;3.35;;;;;;;;;;5090391;28;20094;-74
2023/01/15 03:06:25;;;;;;;12.55;3.22;;;;;;;;;;5090441;28;20024;-73
2023/01/15 03:08:51;;;;;;;9.45;3.33;;;;;;;;;;5090307;28;20026;-73
2023/01/15 03:11:18;;;;;;;10.80;3.50;;;;;;;;;;5090244;28;20024;-75
2023/01/15 03:13:51;;;;;;;13.52;3.90;;;;;;;;;;5090511;28;20055;-73
2023/01/15 03:16:33;;;;;;;13.88;3.75;;;;;;;;;;5090375;28;20060;-74
2023/01/15 03:19:24;;;;;;;11.40;3.83;;;;;;;;;;5090282;28;20507;-75
2023/01/15 03:21:52;;;;;;;;;;;;;;;;;;5089646;28;20031;-73
2023/01/15 03:24:26;;;;;;;9.00;2.97;;;;;;;;;;5090439;28;20091;-74
2023/01/15 03:26:52;;;;;;;9.07;2.88;;;;;;;;;;5088854;28;20047;-73
2023/01/15 03:29:19;;;;;;;10.80;3.70;;;;;;;;;;5088725;28;20028;-75
2023/01/15 03:31:44;;;;;;;11.82;3.40;;;;;;;;;;5090657;28;20039;-74
2023/01/15 03:34:10;;;;;;;7.15;3.22;;;;;;;;;;5090609;28;20031;-73
2023/01/15 03:36:36;;;;;;;9.85;3.35;;;;;;;;;;5090450;28;20058;-73
2023/01/15 03:39:02;;;;;;;8.40;3.17;;;;;;;;;;5090263;28;20032;-74
2023/01/15 03:41:53;;;;;;;10.05;3.20;;;;;;;;;;5090265;28;20024;-73
2023/01/15 03:44:35;;;;;;;10.25;3.20;;;;;;;;;;5085943;28;20028;-74
2023/01/15 03:47:24;;;;;;;9.15;3.55;;;;;;;;;;5089911;28;20048;-74
2023/01/15 03:50:17;;;;;;;11.63;4.05;;;;;;;;;;5091123;28;20115;-74
2023/01/15 03:52:50;;;;;;;9.90;4.15;;;;;;;;;;5094027;28;20103;-73
2023/01/15 03:55:27;;;;;;;10.38;4.60;;;;;;;;;;5093978;28;20510;-73
2023/01/15 03:58:04;;;;;;;8.00;4.43;;;;;;;;;;5093505;28;20043;-74
2023/01/15 04:00:45;;;;;;;13.05;4.75;;;;;;;;;;5093901;28;20039;-73
2023/01/15 04:03:12;;;;;;;7.57;4.20;;;;;;;;;;5093564;28;20081;-73
2023/01/15 04:05:39;;;;;;;11.20;4.40;;;;;;;;;;5093741;28;20047;-73
2023/01/15 04:08:05;;;;;;;12.10;4.60;;;;;;;;;;5093480;28;20024;-73
2023/01/15 04:10:31;;;;;;;17.80;4.90;;;;;;;;;;5093566;28;20030;-74
2023/01/15 04:12:59;;;;;;;9.23;4.60;;;;;;;;;;5093576;28;20024;-73
2023/01/15 04:15:24;;;;;;;13.40;5.40;;;;;;;;;;5093610;28;20059;-73
2023/01/15 04:17:50;;;;;;;13.65;5.10;;;;;;;;;;5093209;28;20048;-73
2023/01/15 04:20:15;;;;;;;13.82;5.07;;;;;;;;;;5093210;28;20471;-74
2023/01/15 04:22:41;;;;;;;9.63;4.78;;;;;;;;;;5093394;28;20026;-74
2023/01/15 04:25:07;;;;;;;10.77;5.13;;;;;;;;;;5093397;28;20426;-74
2023/01/15 04:27:33;;;;;;;13.38;5.53;;;;;;;;;;5092939;28;20518;-74
2023/01/15 04:29:58;;;;;;;14.80;6.13;;;;;;;;;;5093323;28;20024;-73
2023/01/15 04:32:23;;;;;;;14.02;6.50;;;;;;;;;;5093189;28;20099;-73
2023/01/15 04:34:49;;;;;;;13.82;6.45;;;;;;;;;;5092953;28;20020;-73
2023/01/15 04:37:15;;;;;;;10.23;6.13;;;;;;;;;;5093137;28;20078;-73
2023/01/15 04:39:41;;;;;;;11.95;6.78;;;;;;;;;;5092792;28;20565;-75
2023/01/15 04:44:57;;;;;;;14.10;7.07;;;;;;;;;;5093276;28;20057;-74
2023/01/15 04:47:23;;;;;;;11.45;5.93;;;;;;;;;;5092772;28;20044;-74
2023/01/15 04:49:48;;;;;;;11.60;6.50;;;;;;;;;;5092434;28;20028;-74
2023/01/15 04:52:14;;;;;;;12.90;6.88;;;;;;;;;;5092802;28;20024;-74
2023/01/15 04:54:40;;;;;;;13.32;7.65;;;;;;;;;;5091454;28;20066;-75
2023/01/15 04:57:05;;;;;;;10.88;6.25;;;;;;;;;;5092701;28;20115;-74
2023/01/15 04:59:31;;;;;;;12.18;6.78;;;;;;;;;;5092418;28;20024;-74
2023/01/15 05:01:56;;;;;;;12.52;6.60;;;;;;;;;;5092402;28;20043;-74
2023/01/15 05:04:21;;;;;;;11.73;6.75;;;;;;;;;;5092485;28;20040;-75
2023/01/15 05:06:47;;;;;;;12.18;6.80;;;;;;;;;;5091395;28;20035;-73
2023/01/15 05:09:12;;;;;;;12.43;7.20;;;;;;;;;;5091793;28;20481;-75
2023/01/15 05:11:39;;;;;;;10.65;6.30;;;;;;;;;;5090962;28;20460;-74
2023/01/15 05:14:05;;;;;;;15.30;6.80;;;;;;;;;;5092298;28;20070;-74
2023/01/15 05:16:31;;;;;;;14.07;6.90;;;;;;;;;;5091784;28;20031;-73
2023/01/15 05:19:01;;;;;;;10.70;7.00;;;;;;;;;;5092149;28;20072;-73
2023/01/15 05:21:30;;;;;;;12.57;7.25;;;;;;;;;;5093043;28;20380;-72
2023/01/15 05:23:57;;;;;;;15.07;7.82;;;;;;;;;;5112605;28;20035;-73
2023/01/15 05:26:23;;;;;;;12.32;7.35;;;;;;;;;;5113231;28;20088;-73
2023/01/15 05:28:51;;;;;;;14.38;8.18;;;;;;;;;;5094230;28;20039;-73
2023/01/15 05:31:18;;;;;;;14.90;8.10;;;;;;;;;;5092253;28;20406;-73
2023/01/15 05:33:46;;;;;;;18.33;9.38;;;;;;;;;;5092166;28;20028;-73
2023/01/15 05:36:14;;;;;;;16.65;9.23;;;;;;;;;;5092071;28;20063;-72
2023/01/15 05:38:40;;;;;;;22.73;10.00;;;;;;;;;;5091964;28;20020;-72
2023/01/15 05:43:54;;;;;;;17.48;9.50;;;;;;;;;;5092146;28;20096;-72
2023/01/15 05:46:19;;;;;;;19.65;10.02;;;;;;;;;;5091480;28;20048;-72
2023/01/15 05:48:45;;;;;;;19.40;9.32;;;;;;;;;;5090074;28;20051;-72
2023/01/15 05:51:10;;;;;;;16.00;9.25;;;;;;;;;;5091672;28;20028;-73
2023/01/15 05:53:35;;;;;;;19.52;9.48;;;;;;;;;;5091849;28;20081;-72
2023/01/15 05:56:02;;;;;;;23.30;9.65;;;;;;;;;;5090421;28;20032;-72
2023/01/15 05:58:27;;;;;;;17.35;9.43;;;;;;;;;;5091348;28;20057;-73
2023/01/15 06:00:53;;;;;;;18.70;9.63;;;;;;;;;;5091550;28;20445;-74
2023/01/15 06:03:21;;;;;;;17.75;9.38;;;;;;;;;;5091169;28;20137;-72
2023/01/15 06:05:51;;;;;;;19.70;9.55;;;;;;;;;;5091281;28;20590;-73
2023/01/15 06:08:17;;;;;;;17.08;9.40;;;;;;;;;;5091016;28;20119;-72
2023/01/15 06:10:45;;;;;;;16.13;8.80;;;;;;;;;;5091058;28;20529;-72
2023/01/15 06:13:11;;;;;;;17.90;9.25;;;;;;;;;;5090788;28;20035;-73
2023/01/15 06:15:37;;;;;;;18.77;9.45;;;;;;;;;;5091203;28;20028;-76
2023/01/15 06:18:03;;;;;;;18.63;9.30;;;;;;;;;;5091223;28;20028;-75
2023/01/15 06:20:28;;;;;;;18.25;9.52;;;;;;;;;;5090853;28;20111;-75
2023/01/15 06:22:54;;;;;;;16.20;9.32;;;;;;;;;;5091079;28;20035;-73
2023/01/15 06:25:19;;;;;;;16.75;9.15;;;;;;;;;;5091040;28;20050;-73
2023/01/15 06:27:45;;;;;;;16.83;8.82;;;;;;;;;;5090949;28;20490;-73
2023/01/15 06:30:11;;;;;;;14.48;8.40;;;;;;;;;;5090734;28;20024;-72
2023/01/15 06:32:36;;;;;;;15.32;8.32;;;;;;;;;;5091194;28;20040;-73
2023/01/15 06:35:02;;;;;;;15.05;8.65;;;;;;;;;;5091021;28;20039;-73
2023/01/15 06:37:27;;;;;;;12.45;6.90;;;;;;;;;;5090977;28;20039;-74
2023/01/15 06:39:53;;;;;;;10.40;6.47;;;;;;;;;;5090501;28;20387;-73
2023/01/15 06:47:46;;;;;;;10.70;4.88;;;;;;;;;;5090822;28;20071;-75
2023/01/15 06:50:13;;;;;;;13.60;5.25;;;;;;;;;;5090598;28;20082;-73
2023/01/15 06:52:38;;;;;;;12.45;5.10;;;;;;;;;;5090692;28;20027;-74
2023/01/15 06:55:04;;;;;;;9.63;4.22;;;;;;;;;;5090571;28;20028;-73
2023/01/15 06:57:30;;;;;;;11.57;4.10;;;;;;;;;;5090372;28;20114;-72
2023/01/15 06:59:55;;;;;;;10.88;3.78;;;;;;;;;;5090295;28;20028;-74
2023/01/15 07:02:20;;;;;;;11.43;3.55;;;;;;;;;;5090620;28;20024;-74
2023/01/15 07:04:46;;;;;;;6.93;3.22;;;;;;;;;;5090383;28;20032;-72
2023/01/15 07:07:15;;;;;;;8.88;2.58;;;;;;;;;;5090660;28;20107;-75
2023/01/15 07:09:40;;;;;;;8.52;2.40;;;;;;;;;;5090396;28;20465;-75
2023/01/15 07:12:05;;;;;;;5.40;1.58;;;;;;;;;;5090325;28;20020;-77
2023/01/15 07:14:31;;;;;;;2.75;1.15;;;;;;;;;;5090528;28;20039;-75
2023/01/15 07:16:58;;;;;;;5.60;1.15;;;;;;;;;;5090444;28;20443;-75
2023/01/15 07:19:23;;;;;;;2.33;0.85;;;;;;;;;;5090292;28;20032;-74
2023/01/15 07:21:49;;;;;;;1.65;0.70;;;;;;;;;;5090650;28;20024;-76
2023/01/15 07:24:15;;;;;;;3.63;0.88;;;;;;;;;;5092325;28;20097;-76
2023/01/15 07:26:42;;;;;;;1.10;0.60;;;;;;;;;;5094388;28;20035;-76
2023/01/15 07:29:07;;;;;;;2.15;0.70;;;;;;;;;;5094205;28;20134;-75
2023/01/15 07:31:32;;;;;;;9.20;0.85;;;;;;;;;;5094219;28;20032;-75
2023/01/15 07:33:58;;;;;;;1.80;0.57;;;;;;;;;;5094224;28;20045;-77
2023/01/15 07:36:24;;;;;;;2.22;0.52;;;;;;;;;;5094180;28;20468;-77
2023/01/15 07:38:49;;;;;;;2.33;0.50;;;;;;;;;;5094192;28;20028;-77
2023/01/15 07:49:45;;;;;;;2.15;0.30;;;;;;;;;;5093599;28;20074;-77
2023/01/15 07:52:16;;;;;;;1.20;0.32;;;;;;;;;;5093945;28;20020;-76
2023/01/15 07:54:42;;;;;;;0.88;0.30;;;;;;;;;;5093933;28;20024;-76
2023/01/15 07:57:07;;;;;;;1.48;0.40;;;;;;;;;;5094016;28;20069;-76
2023/01/15 07:59:33;;;;;;;0.20;0.20;;;;;;;;;;5093814;28;20024;-76
2023/01/15 08:01:58;;;;;;;0.70;0.30;;;;;;;;;;5093914;28;20031;-77
2023/01/15 08:04:24;;;;;;;1.77;0.50;;;;;;;;;;5093634;28;20132;-76
2023/01/15 08:06:49;;;;;;;1.15;0.57;;;;;;;;;;5092190;28;20020;-78
2023/01/15 08:09:15;;;;;;;3.20;0.60;;;;;;;;;;5093286;28;20134;-76
2023/01/15 08:17:08;;;;;;;2.53;0.50;;;;;;;;;;5093755;28;20073;-76
2023/01/15 08:19:33;;;;;;;1.65;0.30;;;;;;;;;;5093330;28;20123;-76
2023/01/15 08:22:00;;;;;;;1.25;0.47;;;;;;;;;;5093518;28;20032;-80
2023/01/15 08:24:26;;;;;;;1.05;0.50;;;;;;;;;;5093368;28;20519;-80
2023/01/15 08:26:52;;;;;;;0.63;0.30;;;;;;;;;;5093738;28;20046;-76
2023/01/15 08:29:18;;;;;;;0.55;0.30;;;;;;;;;;5093050;28;20032;-79
2023/01/15 08:31:43;;;;;;;0.85;0.40;;;;;;;;;;5093159;28;20119;-77
2023/01/15 08:34:09;;;;;;;1.20;0.52;;;;;;;;;;5093223;28;20349;-81
2023/01/15 08:36:35;;;;;;;1.00;0.47;;;;;;;;;;5092925;28;20039;-83
2023/01/15 08:39:00;;;;;;;1.30;0.50;;;;;;;;;;5093227;28;20024;-79
2023/01/15 08:41:26;;;;;;;1.20;0.40;;;;;;;;;;5092677;28;20020;-76
2023/01/15 08:43:51;;;;;;;1.20;0.47;;;;;;;;;;5092950;28;20035;-79
2023/01/15 08:46:17;;;;;;;2.47;0.63;;;;;;;;;;5092523;28;20048;-78
2023/01/15 08:48:43;;;;;;;2.88;0.77;;;;;;;;;;5092723;28;20032;-75
2023/01/15 08:51:10;;;;;;;1.80;0.70;;;;;;;;;;5092523;28;20027;-75
2023/01/15 08:53:36;;;;;;;1.45;0.70;;;;;;;;;;5092802;28;20052;-77
2023/01/15 08:56:01;;;;;;;2.80;0.70;;;;;;;;;;5092680;28;20036;-84
2023/01/15 08:58:31;;;;;;;2.08;0.65;;;;;;;;;;5092836;28;20035;-81
2023/01/15 09:01:04;;;;;;;1.88;0.60;;;;;;;;;;5096294;28;20320;-81
2023/01/15 09:03:30;;;;;;;1.85;0.82;;;;;;;;;;5103351;28;20031;-77
2023/01/15 09:05:59;;;;;;;1.83;0.80;;;;;;;;;;5084996;28;20029;-73
2023/01/15 09:08:25;;;;;;;1.55;0.73;;;;;;;;;;5093508;28;20339;-75
2023/01/15 09:10:56;;;;;;;1.45;0.65;;;;;;;;;;5102824;28;20085;-74
2023/01/15 09:13:22;;;;;;;1.50;0.68;;;;;;;;;;5103144;28;20020;-74
2023/01/15 09:15:47;;;;;;;2.72;0.90;;;;;;;;;;5103922;28;20024;-74
2023/01/15 09:18:17;;;;;;;2.10;0.88;;;;;;;;;;5102092;28;20024;-74
2023/01/15 09:20:43;;;;;;;2.17;0.82;;;;;;;;;;5098842;28;20024;-73
2023/01/15 09:23:08;;;;;;;4.50;1.00;;;;;;;;;;5102796;28;20227;-73
2023/01/15 09:25:34;;;;;;;2.75;0.90;;;;;;;;;;5102878;28;20028;-73
2023/01/15 09:27:59;;;;;;;3.00;0.77;;;;;;;;;;5095060;28;20039;-72
2023/01/15 09:30:24;;;;;;;3.08;1.20;;;;;;;;;;5102827;28;20055;-72
2023/01/15 09:32:50;;;;;;;2.63;1.00;;;;;;;;;;5101648;28;20406;-71
2023/01/15 09:35:15;;;;;;;3.95;1.70;;;;;;;;;;5097265;28;20023;-77
2023/01/15 09:37:40;;;;;;;1.33;0.82;;;;;;;;;;5103145;28;20334;-73
2023/01/15 09:40:08;;;;;;;2.40;0.88;;;;;;;;;;5102764;28;20031;-76
2023/01/15 09:42:55;;;;;;;2.50;0.90;;;;;;;;;;5103202;28;20308;-72
2023/01/15 09:45:26;;;;;;;3.92;1.00;;;;;;;;;;5096592;28;20177;-73
2023/01/15 09:48:12;;;;;;;2.50;0.85;;;;;;;;;;5094125;28;20053;-80
2023/01/15 09:51:04;;;;;;;2.10;0.90;;;;;;;;;;5102167;28;20231;-73
2023/01/15 09:53:40;;;;;;;2.88;0.70;;;;;;;;;;5065688;28;20078;-71
2023/01/15 09:56:15;;;;;;;1.40;0.60;;;;;;;;;;5094780;28;20099;-72
2023/01/15 09:58:40;;;;;;;1.80;0.50;;;;;;;;;;5089587;28;20042;-72
2023/01/15 10:01:10;;;;;;;3.35;0.68;;;;;;;;;;5097372;28;20023;-72
2023/01/15 10:03:36;;;;;;;3.25;0.50;;;;;;;;;;5091136;28;20020;-72
2023/01/15 10:06:16;;;;;;;4.35;0.60;;;;;;;;;;5094156;28;20099;-73
2023/01/15 10:08:45;;;;;;;2.20;0.90;;;;;;;;;;5091007;28;20028;-73
2023/01/15 10:11:13;;;;;;;2.20;0.75;;;;;;;;;;5083272;28;20029;-73
2023/01/15 10:13:47;;;;;;;0.85;0.40;;;;;;;;;;5080663;28;20480;-73
2023/01/15 10:16:20;;;;;;;2.45;0.60;;;;;;;;;;5091965;28;20028;-73
2023/01/15 10:18:45;;;;;;;1.85;0.98;;;;;;;;;;5088471;28;20024;-79
2023/01/15 10:21:23;;;;;;;2.40;0.90;;;;;;;;;;5087097;28;20085;-81
2023/01/15 10:24:02;;;;;;;2.28;0.90;;;;;;;;;;5091591;28;20098;-83
2023/01/15 10:26:39;;;;;;;2.45;0.70;;;;;;;;;;5090229;28;20507;-81
2023/01/15 10:29:21;;;;;;;2.20;0.65;;;;;;;;;;5088304;28;20024;-84
2023/01/15 10:32:12;;;;;;;1.63;0.60;;;;;;;;;;5069351;28;20024;-83
2023/01/15 10:34:51;;;;;;;1.88;0.73;;;;;;;;;;5050271;28;20573;-82
2023/01/15 10:37:26;;;;;;;2.92;0.90;;;;;;;;;;5069619;28;20060;-82
2023/01/15 10:40:03;;;;;;;3.38;1.13;;;;;;;;;;5069519;28;20025;-84
2023/01/15 10:42:52;;;;;;;4.20;1.20;;;;;;;;;;5069850;28;20024;-76
2023/01/15 10:45:32;;;;;;;5.50;1.30;;;;;;;;;;5069620;28;20657;-80
2023/01/15 10:48:18;;;;;;;2.92;1.50;;;;;;;;;;5071476;28;20024;-79
2023/01/15 10:50:45;;;;;;;3.65;1.20;;;;;;;;;;5081200;28;20040;-80
2023/01/15 10:53:55;;;;;;;3.00;1.05;;;;;;;;;;5093296;28;20248;-77
2023/01/15 10:56:36;;;;;;;4.38;2.28;;;;;;;;;;5062555;28;20041;-84
2023/01/15 10:59:26;;;;;;;2.38;1.00;;;;;;;;;;5066168;28;20025;-83
2023/01/15 11:01:54;;;;;;;1.98;0.90;;;;;;;;;;5069154;28;20488;-80
2023/01/15 11:04:20;;;;;;;5.25;1.00;;;;;;;;;;5065825;28;20051;-76
2023/01/15 11:06:45;;;;;;;4.90;1.08;;;;;;;;;;5067363;28;20036;-78
2023/01/15 11:09:33;;;;;;;2.83;0.70;;;;;;;;;;5068487;28;20025;-77
2023/01/15 11:20:47;;;;;;;3.58;2.10;;;;;;;;;;5069638;28;20074;-78
2023/01/15 11:23:22;;;;;;;3.83;1.55;;;;;;;;;;5071441;28;20043;-75
2023/01/15 11:25:54;;;;;;;3.83;1.00;;;;;;;;;;5077003;28;20028;-78
2023/01/15 11:28:30;;;;;;;6.30;1.02;;;;;;;;;;5075858;28;20029;-77
2023/01/15 11:30:56;;;;;;;5.05;1.20;;;;;;;;;;5114632;28;20032;-74
2023/01/15 11:33:24;;;;;;;4.55;1.05;;;;;;;;;;5109282;28;20069;-73
2023/01/15 11:35:57;;;;;;;3.53;1.00;;;;;;;;;;5109968;28;20560;-73
2023/01/15 11:38:43;;;;;;;4.05;1.42;;;;;;;;;;5109376;28;20078;-74
2023/01/15 11:52:47;;;;;;;3.38;1.30;;;;;;;;;;5075140;28;20044;-74
2023/01/15 11:55:16;;;;;;;5.25;1.33;;;;;;;;;;5082111;28;20028;-77
2023/01/15 11:57:44;;;;;;;4.53;1.50;;;;;;;;;;5078730;28;20154;-73
2023/01/15 12:00:31;;;;;;;6.63;1.67;;;;;;;;;;5089441;28;20035;-79
2023/01/15 12:03:02;;;;;;;5.60;1.75;;;;;;;;;;5088529;28;20024;-76
2023/01/15 12:05:33;;;;;;;5.35;1.50;;;;;;;;;;5087749;28;20024;-79
2023/01/15 12:08:01;;;;;;;;;;;;;;;;;;5089433;28;20036;-72
2023/01/15 12:13:23;;;;;;;4.55;2.08;;;;;;;;;;5092455;28;20038;-74
2023/01/15 12:16:13;;;;;;;4.88;1.30;;;;;;;;;;5092704;28;20035;-75
2023/01/15 12:18:59;;;;;;;6.03;1.92;;;;;;;;;;5091720;28;20027;-78
2023/01/15 12:22:09;;;;;;;8.10;1.92;;;;;;;;;;5092419;28;20028;-75
2023/01/15 12:24:43;;;;;;;5.13;1.80;;;;;;;;;;5068274;28;20036;-79
2023/01/15 12:27:37;;;;;;;5.90;1.63;;;;;;;;;;5092209;28;20024;-77
2023/01/15 12:30:16;;;;;;;2.83;1.20;;;;;;;;;;5092300;28;20055;-77
2023/01/15 12:32:49;;;;;;;4.13;1.25;;;;;;;;;;5092016;28;20403;-73
2023/01/15 12:35:27;;;;;;;5.38;2.00;;;;;;;;;;5091861;28;20404;-74
2023/01/15 12:38:16;;;;;;;5.45;1.50;;;;;;;;;;5092128;28;20081;-71
2023/01/15 12:40:51;;;;;;;3.95;1.30;;;;;;;;;;5092077;28;20036;-74
2023/01/15 12:46:16;;;;;;;3.05;1.10;;;;;;;;;;5094376;28;20082;-73
2023/01/15 12:49:05;;;;;;;3.60;1.20;;;;;;;;;;5091874;28;20173;-72
2023/01/15 12:51:48;;;;;;;5.68;1.25;;;;;;;;;;5091881;28;20038;-74
2023/01/15 12:54:19;;;;;;;5.18;1.23;;;;;;;;;;5100191;28;20043;-74
2023/01/15 12:57:00;;;;;;;2.28;0.90;;;;;;;;;;5091836;28;20169;-74
2023/01/15 12:59:49;;;;;;;3.78;1.00;;;;;;;;;;5091667;28;20027;-76
2023/01/15 13:02:32;;;;;;;3.80;0.90;;;;;;;;;;5091992;28;20120;-84
2023/01/15 13:05:18;;;;;;;3.10;0.70;;;;;;;;;;5092226;28;20050;-77
2023/01/15 13:08:01;;;;;;;3.17;0.70;;;;;;;;;;5092573;28;20089;-76
2023/01/15 13:10:33;;;;;;;5.15;0.88;;;;;;;;;;5094847;28;20032;-77
2023/01/15 13:13:10;;;;;;;4.07;0.70;;;;;;;;;;5090879;28;20055;-75
2023/01/15 13:15:41;;;;;;;5.75;1.30;;;;;;;;;;5091829;28;20051;-74
2023/01/15 13:18:20;;;;;;;3.03;0.80;;;;;;;;;;5090137;28;20111;-74
2023/01/15 13:20:50;;;;;;;4.35;1.08;;;;;;;;;;5091293;28;20031;-81
2023/01/15 13:23:31;;;;;;;3.55;1.00;;;;;;;;;;5091018;28;20472;-74
2023/01/15 13:26:34;;;;;;;4.65;0.93;;;;;;;;;;5091152;28;20524;-73
2023/01/15 13:29:18;;;;;;;5.47;1.40;;;;;;;;;;5027997;28;20056;-74
2023/01/15 13:32:05;;;;;;;6.40;1.30;;;;;;;;;;5028307;28;20111;-74
2023/01/15 13:34:49;;;;;;;4.75;1.20;;;;;;;;;;5074359;28;20575;-75
2023/01/15 13:37:26;;;;;;;3.60;0.93;;;;;;;;;;5090846;28;20048;-74
2023/01/15 13:39:57;;;;;;;4.95;1.00;;;;;;;;;;5090706;28;20395;-74
2023/01/15 13:42:31;;;;;;;4.15;1.02;;;;;;;;;;5090615;28;20030;-73
2023/01/15 13:45:00;;;;;;;5.45;1.27;;;;;;;;;;5090407;28;20020;-73
2023/01/15 13:47:28;;;;;;;6.63;1.50;;;;;;;;;;5090622;28;20134;-73
2023/01/15 13:50:02;;;;;;;6.05;1.27;;;;;;;;;;5090150;28;20031;-72
2023/01/15 13:52:32;;;;;;;4.15;1.15;;;;;;;;;;5090702;28;20114;-73
2023/01/15 13:55:07;;;;;;;6.00;1.05;;;;;;;;;;5090512;28;20066;-73
2023/01/15 13:57:34;;;;;;;3.80;1.10;;;;;;;;;;5081823;28;20029;-73
2023/01/15 14:00:04;;;;;;;4.13;1.25;;;;;;;;;;5070767;28;20097;-73
2023/01/15 14:02:33;;;;;;;5.80;1.40;;;;;;;;;;5040119;28;20055;-74
2023/01/15 14:05:10;;;;;;;4.68;1.45;;;;;;;;;;5058854;28;20090;-73
2023/01/15 14:07:37;;;;;;;7.10;1.70;;;;;;;;;;5067435;28;20029;-72
2023/01/15 14:10:09;;;;;;;5.82;1.63;;;;;;;;;;5057835;28;20025;-75
2023/01/15 14:12:56;;;;;;;3.90;1.40;;;;;;;;;;5049953;28;20025;-73
2023/01/15 14:15:33;;;;;;;5.40;1.25;;;;;;;;;;5050119;28;20032;-73
2023/01/15 14:18:04;;;;;;;5.28;1.10;;;;;;;;;;5050030;28;20029;-75
2023/01/15 14:20:49;;;;;;;5.00;1.50;;;;;;;;;;5049586;28;20037;-73
2023/01/15 14:23:51;;;;;;;4.63;1.10;;;;;;;;;;5052499;28;20811;-73
2023/01/15 14:26:23;;;;;;;3.63;1.13;;;;;;;;;;5069331;28;20115;-73
2023/01/15 14:29:10;;;;;;;3.28;1.20;;;;;;;;;;5053266;28;20029;-73
2023/01/15 14:31:58;;;;;;;4.07;1.45;;;;;;;;;;5060189;28;20032;-73
2023/01/15 14:34:27;;;;;;;3.72;1.10;;;;;;;;;;5069843;28;20027;-74
2023/01/15 14:36:58;;;;;;;4.22;1.25;;;;;;;;;;5070633;28;20480;-74
2023/01/15 14:39:26;;;;;;;5.22;1.35;;;;;;;;;;5070022;28;20069;-73
2023/01/15 14:45:09;;;;;;;6.45;1.60;;;;;;;;;;5069648;28;20054;-73
2023/01/15 14:47:49;;;;;;;4.00;1.15;;;;;;;;;;5069143;28;20084;-75
2023/01/15 14:50:40;;;;;;;7.70;1.42;;;;;;;;;;5066635;28;20706;-74
2023/01/15 14:53:15;;;;;;;5.32;1.40;;;;;;;;;;5051648;28;20057;-74
2023/01/15 14:55:52;;;;;;;5.32;1.67;;;;;;;;;;5050410;28;20029;-75
2023/01/15 14:58:32;;;;;;;4.35;1.50;;;;;;;;;;5069970;28;20021;-75
2023/01/15 15:01:03;;;;;;;5.75;1.75;;;;;;;;;;5052155;28;20040;-76
2023/01/15 15:03:36;;;;;;;10.60;2.00;;;;;;;;;;5057384;28;20055;-72
2023/01/15 15:06:02;;;;;;;8.05;2.10;;;;;;;;;;5050492;28;20032;-78
2023/01/15 15:08:32;;;;;;;6.00;1.90;;;;;;;;;;5051860;28;20384;-77
2023/01/15 15:10:59;;;;;;;11.20;2.45;;;;;;;;;;5050008;28;20086;-79
2023/01/15 15:13:36;;;;;;;8.45;2.25;;;;;;;;;;5049559;28;20527;-73
2023/01/15 15:16:16;;;;;;;7.35;2.20;;;;;;;;;;5065514;28;20023;-74
2023/01/15 15:18:46;;;;;;;8.35;2.65;;;;;;;;;;5070283;28;20388;-77
2023/01/15 15:21:16;;;;;;;11.75;2.00;;;;;;;;;;5055872;28;20049;-74
2023/01/15 15:23:52;;;;;;;7.88;1.80;;;;;;;;;;5050590;28;20028;-74
2023/01/15 15:26:25;;;;;;;8.52;1.70;;;;;;;;;;5073989;28;20032;-73
2023/01/15 15:29:13;;;;;;;10.32;1.48;;;;;;;;;;5072852;28;20035;-73
2023/01/15 15:32:12;;;;;;;8.38;1.55;;;;;;;;;;5056065;28;20419;-77
2023/01/15 15:34:40;;;;;;;3.80;1.10;;;;;;;;;;5047404;28;20040;-78
2023/01/15 15:37:17;;;;;;;4.15;1.17;;;;;;;;;;5050610;28;20087;-74
2023/01/15 15:39:43;;;;;;;6.45;1.55;;;;;;;;;;5051188;28;20032;-73
2023/01/15 15:50:32;;;;;;;7.90;1.90;;;;;;;;;;5076102;28;20036;-71
2023/01/15 15:52:57;;;;;;;11.15;2.00;;;;;;;;;;5076893;28;20029;-74
2023/01/15 15:55:27;;;;;;;7.38;1.98;;;;;;;;;;5074375;28;20058;-74
2023/01/15 15:57:57;;;;;;;10.00;2.70;;;;;;;;;;5065883;28;20411;-74
2023/01/15 16:00:32;;;;;;;7.80;1.63;;;;;;;;;;5053804;28;20071;-74
2023/01/15 16:03:05;;;;;;;9.88;2.65;;;;;;;;;;5051995;28;20116;-74
2023/01/15 16:05:31;;;;;;;6.70;1.77;;;;;;;;;;5054928;28;20040;-74
2023/01/15 16:08:27;;;;;;;7.68;2.30;;;;;;;;;;5054310;28;20120;-70